sensor_id;sensor_type;location;lat;lon;timestamp;pressure;altitude;pressure_sealevel;temperature;humidity
75604;BME280;64187;51.010;13.792;2023-01-19T00:00:16;99037.56;;;0.41;75.27
75604;BME280;64187;51.010;13.792;2023-01-19T00:05:16;99032.84;;;0.43;74.08
75604;BME280;64187;51.010;13.792;2023-01-19T00:10:15;99044.31;;;0.43;75.29
75604;BME280;64187;51.010;13.792;2023-01-19T00:15:14;99046.56;;;0.53;74.66
75604;BME280;64187;51.010;13.792;2023-01-19T00:20:12;99050.81;;;0.68;70.48
75604;BME280;64187;51.010;13.792;2023-01-19T00:25:12;99048.22;;;0.41;74.07
75604;BME280;64187;51.010;13.792;2023-01-19T00:30:12;99063.00;;;0.10;74.73
75604;BME280;64187;51.010;13.792;2023-01-19T00:35:10;99069.31;;;0.36;72.21
75604;BME280;64187;51.010;13.792;2023-01-19T00:40:10;99067.47;;;0.16;72.39
75604;BME280;64187;51.010;13.792;2023-01-19T00:45:11;99083.63;;;0.15;73.62
75604;BME280;64187;51.010;13.792;2023-01-19T00:50:11;99084.25;;;0.17;73.85
75604;BME280;64187;51.010;13.792;2023-01-19T00:55:12;99095.53;;;-0.14;75.12
75604;BME280;64187;51.010;13.792;2023-01-19T01:00:14;99093.69;;;0.06;73.61
75604;BME280;64187;51.010;13.792;2023-01-19T01:05:13;99097.78;;;0.09;74.26
75604;BME280;64187;51.010;13.792;2023-01-19T01:10:18;99093.69;;;-0.01;73.79
75604;BME280;64187;51.010;13.792;2023-01-19T01:15:18;99106.91;;;-0.47;75.26
75604;BME280;64187;51.010;13.792;2023-01-19T01:20:22;99109.38;;;-1.00;77.27
75604;BME280;64187;51.010;13.792;2023-01-19T01:25:23;99117.16;;;-0.92;75.77
75604;BME280;64187;51.010;13.792;2023-01-19T01:30:22;99111.19;;;-0.59;75.12
75604;BME280;64187;51.010;13.792;2023-01-19T01:35:21;99108.00;;;-0.83;76.09
75604;BME280;64187;51.010;13.792;2023-01-19T01:40:20;99109.22;;;-0.85;75.36
75604;BME280;64187;51.010;13.792;2023-01-19T01:45:29;99122.38;;;-0.71;72.88
75604;BME280;64187;51.010;13.792;2023-01-19T01:50:29;99109.94;;;-0.63;73.72
75604;BME280;64187;51.010;13.792;2023-01-19T01:55:31;99129.00;;;-1.36;76.16
75604;BME280;64187;51.010;13.792;2023-01-19T02:00:32;99127.69;;;-1.47;75.95
75604;BME280;64187;51.010;13.792;2023-01-19T02:05:54;99131.19;;;-1.46;75.70
75604;BME280;64187;51.010;13.792;2023-01-19T02:10:55;99131.38;;;-1.13;74.64
75604;BME280;64187;51.010;13.792;2023-01-19T02:16:15;99125.19;;;-1.55;75.63
75604;BME280;64187;51.010;13.792;2023-01-19T02:21:58;99126.50;;;-1.94;77.13
75604;BME280;64187;51.010;13.792;2023-01-19T02:26:50;99132.09;;;-1.61;76.06
75604;BME280;64187;51.010;13.792;2023-01-19T02:31:49;99131.97;;;-1.74;74.71
75604;BME280;64187;51.010;13.792;2023-01-19T02:37:00;99142.63;;;-1.96;75.03
75604;BME280;64187;51.010;13.792;2023-01-19T02:42:24;99135.16;;;-1.85;74.73
75604;BME280;64187;51.010;13.792;2023-01-19T02:47:24;99142.88;;;-2.33;76.70
75604;BME280;64187;51.010;13.792;2023-01-19T02:52:24;99146.50;;;-2.34;77.20
75604;BME280;64187;51.010;13.792;2023-01-19T02:58:14;99149.25;;;-2.28;76.52
75604;BME280;64187;51.010;13.792;2023-01-19T03:03:06;99150.81;;;-2.33;76.67
75604;BME280;64187;51.010;13.792;2023-01-19T03:18:19;99173.47;;;-2.31;75.58
75604;BME280;64187;51.010;13.792;2023-01-19T03:23:19;99183.19;;;-2.17;75.42
75604;BME280;64187;51.010;13.792;2023-01-19T03:28:21;99188.22;;;-2.22;74.77
75604;BME280;64187;51.010;13.792;2023-01-19T03:33:26;99195.19;;;-2.72;76.65
75604;BME280;64187;51.010;13.792;2023-01-19T03:38:27;99195.31;;;-2.44;74.86
75604;BME280;64187;51.010;13.792;2023-01-19T03:43:29;99190.72;;;-2.86;78.53
75604;BME280;64187;51.010;13.792;2023-01-19T03:48:29;99189.63;;;-2.92;77.86
75604;BME280;64187;51.010;13.792;2023-01-19T03:53:28;99191.19;;;-2.31;74.64
75604;BME280;64187;51.010;13.792;2023-01-19T03:58:27;99195.75;;;-2.25;75.47
75604;BME280;64187;51.010;13.792;2023-01-19T04:03:26;99203.88;;;-2.27;76.03
75604;BME280;64187;51.010;13.792;2023-01-19T04:08:25;99203.19;;;-2.14;75.69
75604;BME280;64187;51.010;13.792;2023-01-19T04:13:24;99204.84;;;-1.70;73.84
75604;BME280;64187;51.010;13.792;2023-01-19T04:18:30;99201.97;;;-1.75;74.40
75604;BME280;64187;51.010;13.792;2023-01-19T04:23:32;99194.63;;;-1.73;73.09
75604;BME280;64187;51.010;13.792;2023-01-19T04:28:32;99186.53;;;-1.65;73.04
75604;BME280;64187;51.010;13.792;2023-01-19T04:33:32;99189.19;;;-1.65;73.53
75604;BME280;64187;51.010;13.792;2023-01-19T04:38:31;99197.28;;;-1.73;72.87
75604;BME280;64187;51.010;13.792;2023-01-19T04:43:30;99194.75;;;-2.39;74.02
75604;BME280;64187;51.010;13.792;2023-01-19T04:48:29;99206.25;;;-2.68;76.26
75604;BME280;64187;51.010;13.792;2023-01-19T04:53:28;99210.16;;;-2.64;76.85
75604;BME280;64187;51.010;13.792;2023-01-19T04:58:27;99202.22;;;-2.64;75.45
75604;BME280;64187;51.010;13.792;2023-01-19T05:03:25;99205.88;;;-2.65;75.78
75604;BME280;64187;51.010;13.792;2023-01-19T05:08:24;99200.72;;;-2.52;75.69
75604;BME280;64187;51.010;13.792;2023-01-19T05:13:23;99195.44;;;-2.52;74.63
75604;BME280;64187;51.010;13.792;2023-01-19T05:18:22;99189.25;;;-2.23;73.46
75604;BME280;64187;51.010;13.792;2023-01-19T05:23:21;99201.94;;;-2.54;74.83
75604;BME280;64187;51.010;13.792;2023-01-19T05:28:20;99187.13;;;5.87;92.36
75604;BME280;64187;51.010;13.792;2023-01-19T05:33:21;99185.16;;;5.82;75.54
75604;BME280;64187;51.010;13.792;2023-01-19T05:38:20;99174.47;;;6.79;59.47
75604;BME280;64187;51.010;13.792;2023-01-19T05:43:32;99180.53;;;5.02;48.06
75604;BME280;64187;51.010;13.792;2023-01-19T05:48:31;99190.34;;;0.60;60.85
75604;BME280;64187;51.010;13.792;2023-01-19T05:53:30;99182.72;;;-0.99;67.28
75604;BME280;64187;51.010;13.792;2023-01-19T05:58:29;99192.56;;;-1.78;69.80
75604;BME280;64187;51.010;13.792;2023-01-19T06:03:28;99199.50;;;-1.98;70.99
75604;BME280;64187;51.010;13.792;2023-01-19T06:08:28;99219.66;;;-2.55;72.47
75604;BME280;64187;51.010;13.792;2023-01-19T06:13:27;99202.84;;;-2.47;73.08
75604;BME280;64187;51.010;13.792;2023-01-19T06:18:26;99212.03;;;-2.28;72.22
75604;BME280;64187;51.010;13.792;2023-01-19T06:23:30;99223.94;;;-2.54;72.75
75604;BME280;64187;51.010;13.792;2023-01-19T06:28:30;99247.59;;;-3.12;74.92
75604;BME280;64187;51.010;13.792;2023-01-19T06:33:29;99246.44;;;-2.79;73.58
75604;BME280;64187;51.010;13.792;2023-01-19T06:38:27;99251.00;;;-3.03;74.07
75604;BME280;64187;51.010;13.792;2023-01-19T06:43:26;99255.44;;;-2.89;72.89
75604;BME280;64187;51.010;13.792;2023-01-19T06:48:25;99253.28;;;-2.85;71.92
75604;BME280;64187;51.010;13.792;2023-01-19T06:53:24;99268.94;;;-3.13;73.94
75604;BME280;64187;51.010;13.792;2023-01-19T06:58:26;99265.75;;;-2.94;73.52
75604;BME280;64187;51.010;13.792;2023-01-19T07:03:25;99262.69;;;-2.83;72.45
75604;BME280;64187;51.010;13.792;2023-01-19T07:08:24;99273.28;;;-2.83;72.03
75604;BME280;64187;51.010;13.792;2023-01-19T07:13:23;99278.69;;;-3.14;72.62
75604;BME280;64187;51.010;13.792;2023-01-19T07:18:22;99279.47;;;-3.28;73.24
75604;BME280;64187;51.010;13.792;2023-01-19T07:23:20;99280.16;;;-3.49;73.90
75604;BME280;64187;51.010;13.792;2023-01-19T07:28:19;99287.00;;;-3.55;74.89
75604;BME280;64187;51.010;13.792;2023-01-19T07:33:18;99288.78;;;-3.55;75.65
75604;BME280;64187;51.010;13.792;2023-01-19T07:38:20;99295.03;;;-3.25;74.03
75604;BME280;64187;51.010;13.792;2023-01-19T07:43:19;99290.13;;;-3.36;74.71
75604;BME280;64187;51.010;13.792;2023-01-19T07:48:18;99295.03;;;-3.25;74.93
75604;BME280;64187;51.010;13.792;2023-01-19T07:53:17;99304.91;;;-3.04;73.80
75604;BME280;64187;51.010;13.792;2023-01-19T07:58:16;99303.84;;;-2.95;73.65
75604;BME280;64187;51.010;13.792;2023-01-19T08:03:15;99304.06;;;-3.19;75.17
75604;BME280;64187;51.010;13.792;2023-01-19T08:08:15;99312.09;;;-2.75;74.31
75604;BME280;64187;51.010;13.792;2023-01-19T08:13:14;99313.44;;;-2.94;74.58
75604;BME280;64187;51.010;13.792;2023-01-19T08:18:13;99316.13;;;-2.49;73.56
75604;BME280;64187;51.010;13.792;2023-01-19T08:23:13;99327.72;;;-2.50;72.68
75604;BME280;64187;51.010;13.792;2023-01-19T08:28:14;99321.59;;;-2.80;74.87
75604;BME280;64187;51.010;13.792;2023-01-19T08:33:14;99318.47;;;-2.69;73.04
75604;BME280;64187;51.010;13.792;2023-01-19T08:38:13;99311.47;;;-2.32;73.15
75604;BME280;64187;51.010;13.792;2023-01-19T08:43:14;99327.34;;;-2.03;72.95
75604;BME280;64187;51.010;13.792;2023-01-19T08:48:15;99321.66;;;-2.00;73.12
75604;BME280;64187;51.010;13.792;2023-01-19T08:53:15;99330.63;;;-2.01;72.64
75604;BME280;64187;51.010;13.792;2023-01-19T08:58:15;99325.69;;;-2.04;72.96
75604;BME280;64187;51.010;13.792;2023-01-19T09:03:14;99311.13;;;-1.35;71.38
75604;BME280;64187;51.010;13.792;2023-01-19T09:08:13;99318.78;;;-0.97;70.01
75604;BME280;64187;51.010;13.792;2023-01-19T09:13:13;99313.31;;;-0.96;69.08
75604;BME280;64187;51.010;13.792;2023-01-19T09:18:16;99317.78;;;-0.96;70.21
75604;BME280;64187;51.010;13.792;2023-01-19T09:23:18;99320.47;;;-0.96;70.51
75604;BME280;64187;51.010;13.792;2023-01-19T09:28:18;99325.25;;;-0.57;68.78
75604;BME280;64187;51.010;13.792;2023-01-19T09:33:18;99322.06;;;-0.39;67.39
75604;BME280;64187;51.010;13.792;2023-01-19T09:38:18;99317.53;;;-0.45;68.23
75604;BME280;64187;51.010;13.792;2023-01-19T09:43:40;99328.13;;;-0.10;68.26
75604;BME280;64187;51.010;13.792;2023-01-19T09:49:13;99317.34;;;-0.02;67.89
75604;BME280;64187;51.010;13.792;2023-01-19T09:54:34;99318.38;;;0.04;68.12
75604;BME280;64187;51.010;13.792;2023-01-19T09:59:34;99319.72;;;0.28;67.25
75604;BME280;64187;51.010;13.792;2023-01-19T10:04:41;99306.84;;;0.64;67.88
75604;BME280;64187;51.010;13.792;2023-01-19T10:15:02;99314.44;;;0.54;67.43
75604;BME280;64187;51.010;13.792;2023-01-19T10:20:14;99299.69;;;0.52;67.89
75604;BME280;64187;51.010;13.792;2023-01-19T10:28:22;99290.09;;;0.91;66.65
75604;BME280;64187;51.010;13.792;2023-01-19T10:33:23;99303.41;;;1.24;66.10
75604;BME280;64187;51.010;13.792;2023-01-19T10:38:22;99296.00;;;1.26;65.50
75604;BME280;64187;51.010;13.792;2023-01-19T10:48:39;99292.31;;;1.47;66.93
75604;BME280;64187;51.010;13.792;2023-01-19T10:53:42;99281.53;;;1.80;67.37
75604;BME280;64187;51.010;13.792;2023-01-19T10:58:51;99275.00;;;2.21;66.09
75604;BME280;64187;51.010;13.792;2023-01-19T11:03:51;99280.16;;;2.79;64.38
75604;BME280;64187;51.010;13.792;2023-01-19T11:08:52;99281.84;;;3.24;62.50
75604;BME280;64187;51.010;13.792;2023-01-19T11:14:06;99278.81;;;3.57;59.40
75604;BME280;64187;51.010;13.792;2023-01-19T11:19:18;99277.41;;;3.55;57.27
75604;BME280;64187;51.010;13.792;2023-01-19T11:24:17;99283.41;;;3.50;58.21
75604;BME280;64187;51.010;13.792;2023-01-19T11:29:23;99274.66;;;3.98;58.12
75604;BME280;64187;51.010;13.792;2023-01-19T11:34:30;99271.81;;;4.12;57.65
75604;BME280;64187;51.010;13.792;2023-01-19T11:39:31;99284.84;;;3.89;56.93
75604;BME280;64187;51.010;13.792;2023-01-19T11:44:47;99280.78;;;3.69;61.62
75604;BME280;64187;51.010;13.792;2023-01-19T12:00:44;99284.84;;;3.09;63.62
75604;BME280;64187;51.010;13.792;2023-01-19T12:05:47;99277.81;;;3.15;63.86
75604;BME280;64187;51.010;13.792;2023-01-19T12:10:48;99282.19;;;3.71;60.67
75604;BME280;64187;51.010;13.792;2023-01-19T12:15:56;99283.44;;;4.05;57.79
75604;BME280;64187;51.010;13.792;2023-01-19T12:20:57;99280.34;;;4.20;55.33
75604;BME280;64187;51.010;13.792;2023-01-19T12:31:44;99279.91;;;4.23;54.31
75604;BME280;64187;51.010;13.792;2023-01-19T12:36:43;99277.28;;;4.35;54.34
75604;BME280;64187;51.010;13.792;2023-01-19T12:41:42;99280.91;;;4.41;54.17
75604;BME280;64187;51.010;13.792;2023-01-19T12:46:47;99270.31;;;4.46;54.05
75604;BME280;64187;51.010;13.792;2023-01-19T12:51:48;99271.00;;;4.41;52.78
75604;BME280;64187;51.010;13.792;2023-01-19T12:56:48;99270.00;;;4.24;53.53
75604;BME280;64187;51.010;13.792;2023-01-19T13:07:21;99254.84;;;4.18;53.50
75604;BME280;64187;51.010;13.792;2023-01-19T13:27:47;99255.91;;;3.98;53.70
75604;BME280;64187;51.010;13.792;2023-01-19T13:32:47;99252.81;;;3.83;53.22
75604;BME280;64187;51.010;13.792;2023-01-19T13:37:47;99252.03;;;4.13;52.80
75604;BME280;64187;51.010;13.792;2023-01-19T13:42:47;99250.63;;;3.92;53.03
75604;BME280;64187;51.010;13.792;2023-01-19T13:47:47;99234.13;;;3.95;53.54
75604;BME280;64187;51.010;13.792;2023-01-19T13:52:47;99249.84;;;3.73;52.87
75604;BME280;64187;51.010;13.792;2023-01-19T13:57:49;99250.19;;;3.95;53.73
75604;BME280;64187;51.010;13.792;2023-01-19T14:13:28;99260.75;;;3.89;53.92
75604;BME280;64187;51.010;13.792;2023-01-19T14:18:29;99266.22;;;3.83;54.57
75604;BME280;64187;51.010;13.792;2023-01-19T14:29:27;99263.78;;;3.38;55.45
75604;BME280;64187;51.010;13.792;2023-01-19T14:34:38;99268.19;;;3.32;55.10
75604;BME280;64187;51.010;13.792;2023-01-19T14:39:43;99268.75;;;3.16;56.48
75604;BME280;64187;51.010;13.792;2023-01-19T14:44:46;99271.19;;;3.17;55.96
75604;BME280;64187;51.010;13.792;2023-01-19T14:49:46;99275.03;;;3.28;55.32
75604;BME280;64187;51.010;13.792;2023-01-19T14:54:46;99276.69;;;3.22;56.51
75604;BME280;64187;51.010;13.792;2023-01-19T14:59:45;99278.56;;;3.22;55.91
75604;BME280;64187;51.010;13.792;2023-01-19T15:04:47;99277.75;;;3.21;56.43
75604;BME280;64187;51.010;13.792;2023-01-19T15:09:46;99284.03;;;3.09;56.98
75604;BME280;64187;51.010;13.792;2023-01-19T15:14:46;99288.19;;;2.79;57.03
75604;BME280;64187;51.010;13.792;2023-01-19T15:19:45;99284.44;;;2.80;56.56
75604;BME280;64187;51.010;13.792;2023-01-19T15:24:47;99299.13;;;2.40;59.82
75604;BME280;64187;51.010;13.792;2023-01-19T15:29:46;99315.16;;;2.40;59.35
75604;BME280;64187;51.010;13.792;2023-01-19T15:34:45;99305.59;;;2.19;57.57
75604;BME280;64187;51.010;13.792;2023-01-19T15:39:44;99313.88;;;2.04;59.02
75604;BME280;64187;51.010;13.792;2023-01-19T15:44:43;99322.19;;;2.27;59.16
75604;BME280;64187;51.010;13.792;2023-01-19T15:49:42;99328.59;;;2.20;60.32
75604;BME280;64187;51.010;13.792;2023-01-19T15:54:41;99339.28;;;2.13;60.81
75604;BME280;64187;51.010;13.792;2023-01-19T15:59:40;99342.56;;;2.15;59.57
75604;BME280;64187;51.010;13.792;2023-01-19T16:04:39;99339.59;;;1.85;60.61
75604;BME280;64187;51.010;13.792;2023-01-19T16:09:38;99343.50;;;1.89;60.98
75604;BME280;64187;51.010;13.792;2023-01-19T16:14:37;99343.78;;;4.68;87.21
75604;BME280;64187;51.010;13.792;2023-01-19T16:19:45;99343.56;;;3.22;57.98
75604;BME280;64187;51.010;13.792;2023-01-19T16:24:56;99352.72;;;2.45;56.78
75604;BME280;64187;51.010;13.792;2023-01-19T16:29:55;99356.03;;;2.40;55.59
75604;BME280;64187;51.010;13.792;2023-01-19T16:34:54;99360.81;;;2.63;55.92
75604;BME280;64187;51.010;13.792;2023-01-19T16:39:53;99363.31;;;2.58;57.64
75604;BME280;64187;51.010;13.792;2023-01-19T16:44:52;99372.03;;;2.47;57.58
75604;BME280;64187;51.010;13.792;2023-01-19T16:49:52;99378.91;;;2.23;60.71
75604;BME280;64187;51.010;13.792;2023-01-19T16:54:50;99390.56;;;2.35;58.55
75604;BME280;64187;51.010;13.792;2023-01-19T16:59:52;99387.91;;;2.28;61.20
75604;BME280;64187;51.010;13.792;2023-01-19T17:04:51;99382.97;;;2.70;58.56
75604;BME280;64187;51.010;13.792;2023-01-19T17:09:49;99384.84;;;2.18;57.57
75604;BME280;64187;51.010;13.792;2023-01-19T17:14:48;99386.25;;;2.79;58.91
75604;BME280;64187;51.010;13.792;2023-01-19T17:19:47;99397.03;;;2.59;57.78
75604;BME280;64187;51.010;13.792;2023-01-19T17:24:46;99384.38;;;2.79;59.37
75604;BME280;64187;51.010;13.792;2023-01-19T17:29:45;99400.78;;;2.45;59.06
75604;BME280;64187;51.010;13.792;2023-01-19T17:34:50;99400.41;;;2.79;58.76
75604;BME280;64187;51.010;13.792;2023-01-19T17:39:48;99400.22;;;2.81;58.07
75604;BME280;64187;51.010;13.792;2023-01-19T17:44:47;99408.88;;;2.76;57.03
75604;BME280;64187;51.010;13.792;2023-01-19T17:49:46;99412.66;;;2.55;57.93
75604;BME280;64187;51.010;13.792;2023-01-19T17:54:45;99414.44;;;2.68;58.14
75604;BME280;64187;51.010;13.792;2023-01-19T17:59:44;99426.88;;;2.43;59.80
75604;BME280;64187;51.010;13.792;2023-01-19T18:04:44;99424.00;;;2.44;60.96
75604;BME280;64187;51.010;13.792;2023-01-19T18:09:43;99420.56;;;2.30;62.84
75604;BME280;64187;51.010;13.792;2023-01-19T18:14:42;99421.06;;;2.59;61.89
75604;BME280;64187;51.010;13.792;2023-01-19T18:19:41;99430.56;;;2.48;62.07
75604;BME280;64187;51.010;13.792;2023-01-19T18:24:40;99428.28;;;2.58;61.98
75604;BME280;64187;51.010;13.792;2023-01-19T18:29:38;99423.34;;;1.77;65.24
75604;BME280;64187;51.010;13.792;2023-01-19T18:34:37;99426.81;;;2.04;64.42
75604;BME280;64187;51.010;13.792;2023-01-19T18:39:36;99433.53;;;2.13;65.07
75604;BME280;64187;51.010;13.792;2023-01-19T18:44:35;99427.00;;;2.03;65.04
75604;BME280;64187;51.010;13.792;2023-01-19T18:49:34;99428.28;;;1.87;65.12
75604;BME280;64187;51.010;13.792;2023-01-19T18:54:32;99427.69;;;1.65;65.68
75604;BME280;64187;51.010;13.792;2023-01-19T18:59:31;99435.03;;;1.89;64.55
75604;BME280;64187;51.010;13.792;2023-01-19T19:04:30;99448.97;;;2.11;63.88
75604;BME280;64187;51.010;13.792;2023-01-19T19:09:29;99453.47;;;2.11;63.72
75604;BME280;64187;51.010;13.792;2023-01-19T19:14:27;99449.22;;;1.77;65.15
75604;BME280;64187;51.010;13.792;2023-01-19T19:19:26;99454.34;;;1.91;65.39
75604;BME280;64187;51.010;13.792;2023-01-19T19:24:25;99460.66;;;2.17;64.02
75604;BME280;64187;51.010;13.792;2023-01-19T19:29:24;99455.94;;;2.06;63.80
75604;BME280;64187;51.010;13.792;2023-01-19T19:34:23;99457.69;;;2.52;63.71
75604;BME280;64187;51.010;13.792;2023-01-19T19:39:22;99458.59;;;2.12;64.63
75604;BME280;64187;51.010;13.792;2023-01-19T19:44:21;99459.81;;;2.23;64.04
75604;BME280;64187;51.010;13.792;2023-01-19T19:49:20;99460.63;;;2.30;63.62
75604;BME280;64187;51.010;13.792;2023-01-19T19:54:18;99468.84;;;2.29;64.15
75604;BME280;64187;51.010;13.792;2023-01-19T19:59:18;99476.22;;;2.33;64.22
75604;BME280;64187;51.010;13.792;2023-01-19T20:04:16;99476.44;;;2.32;64.02
75604;BME280;64187;51.010;13.792;2023-01-19T20:09:17;99481.59;;;2.13;64.77
75604;BME280;64187;51.010;13.792;2023-01-19T20:14:16;99486.34;;;1.98;65.43
75604;BME280;64187;51.010;13.792;2023-01-19T20:19:15;99487.59;;;2.09;65.64
75604;BME280;64187;51.010;13.792;2023-01-19T20:24:17;99487.13;;;2.25;65.51
75604;BME280;64187;51.010;13.792;2023-01-19T20:29:17;99495.38;;;2.24;65.21
75604;BME280;64187;51.010;13.792;2023-01-19T20:34:19;99498.81;;;2.44;64.75
75604;BME280;64187;51.010;13.792;2023-01-19T20:39:19;99505.28;;;2.68;64.03
75604;BME280;64187;51.010;13.792;2023-01-19T20:44:21;99502.78;;;2.02;65.89
75604;BME280;64187;51.010;13.792;2023-01-19T20:49:21;99507.91;;;2.17;66.00
75604;BME280;64187;51.010;13.792;2023-01-19T20:54:22;99503.56;;;2.15;66.15
75604;BME280;64187;51.010;13.792;2023-01-19T20:59:22;99511.56;;;2.22;65.85
75604;BME280;64187;51.010;13.792;2023-01-19T21:04:21;99506.81;;;2.31;66.05
75604;BME280;64187;51.010;13.792;2023-01-19T21:09:20;99522.03;;;2.30;66.18
75604;BME280;64187;51.010;13.792;2023-01-19T21:14:20;99520.00;;;2.19;66.56
75604;BME280;64187;51.010;13.792;2023-01-19T21:19:19;99530.25;;;2.35;65.65
75604;BME280;64187;51.010;13.792;2023-01-19T21:24:17;99536.00;;;1.66;68.19
75604;BME280;64187;51.010;13.792;2023-01-19T21:29:16;99536.56;;;2.61;65.90
75604;BME280;64187;51.010;13.792;2023-01-19T21:34:15;99547.00;;;2.76;66.17
75604;BME280;64187;51.010;13.792;2023-01-19T21:39:15;99542.72;;;2.55;65.46
75604;BME280;64187;51.010;13.792;2023-01-19T21:44:15;99547.91;;;2.36;66.74
75604;BME280;64187;51.010;13.792;2023-01-19T21:49:18;99549.56;;;2.37;66.33
75604;BME280;64187;51.010;13.792;2023-01-19T21:54:17;99555.75;;;2.05;68.10
75604;BME280;64187;51.010;13.792;2023-01-19T21:59:16;99554.69;;;2.26;67.93
75604;BME280;64187;51.010;13.792;2023-01-19T22:04:17;99566.03;;;2.21;67.76
75604;BME280;64187;51.010;13.792;2023-01-19T22:09:16;99568.88;;;1.93;69.30
75604;BME280;64187;51.010;13.792;2023-01-19T22:14:15;99575.66;;;1.96;69.06
75604;BME280;64187;51.010;13.792;2023-01-19T22:19:14;99563.13;;;2.23;68.80
75604;BME280;64187;51.010;13.792;2023-01-19T22:24:13;99568.88;;;2.26;68.62
75604;BME280;64187;51.010;13.792;2023-01-19T22:29:12;99575.47;;;2.04;69.51
75604;BME280;64187;51.010;13.792;2023-01-19T22:34:10;99579.75;;;2.18;69.03
75604;BME280;64187;51.010;13.792;2023-01-19T22:39:11;99579.78;;;2.11;68.99
75604;BME280;64187;51.010;13.792;2023-01-19T22:44:16;99578.09;;;2.30;68.71
75604;BME280;64187;51.010;13.792;2023-01-19T22:49:16;99577.91;;;2.19;69.18
75604;BME280;64187;51.010;13.792;2023-01-19T22:54:15;99568.66;;;2.34;67.63
75604;BME280;64187;51.010;13.792;2023-01-19T22:59:14;99571.34;;;2.34;67.75
75604;BME280;64187;51.010;13.792;2023-01-19T23:04:14;99577.09;;;2.18;68.31
75604;BME280;64187;51.010;13.792;2023-01-19T23:09:13;99574.84;;;2.02;69.62
75604;BME280;64187;51.010;13.792;2023-01-19T23:14:15;99575.84;;;2.47;67.92
75604;BME280;64187;51.010;13.792;2023-01-19T23:19:14;99584.88;;;2.33;67.55
75604;BME280;64187;51.010;13.792;2023-01-19T23:24:14;99576.88;;;2.40;68.44
75604;BME280;64187;51.010;13.792;2023-01-19T23:29:14;99578.41;;;2.87;66.92
75604;BME280;64187;51.010;13.792;2023-01-19T23:34:13;99582.34;;;2.85;67.11
75604;BME280;64187;51.010;13.792;2023-01-19T23:39:16;99573.75;;;2.69;67.76
75604;BME280;64187;51.010;13.792;2023-01-19T23:44:16;99569.44;;;2.55;68.49
75604;BME280;64187;51.010;13.792;2023-01-19T23:49:15;99565.53;;;2.64;68.24
75604;BME280;64187;51.010;13.792;2023-01-19T23:54:14;99570.91;;;2.37;69.01
75604;BME280;64187;51.010;13.792;2023-01-19T23:59:14;99576.00;;;2.66;68.98
